createdAt,value
2024-03-12T00:01:40.562Z,21.35
2024-03-12T00:04:11.066Z,17.75
2024-03-12T00:06:38.961Z,15.68
2024-03-12T00:09:11.010Z,16.27
2024-03-12T00:11:38.051Z,18.92
2024-03-12T00:14:05.207Z,15.23
2024-03-12T00:16:34.912Z,15.50
2024-03-12T00:19:02.324Z,13.27
2024-03-12T00:21:30.574Z,20.17
2024-03-12T00:23:57.484Z,17.08
2024-03-12T00:26:24.109Z,18.02
2024-03-12T00:28:50.795Z,21.83
2024-03-12T00:31:17.956Z,23.80
2024-03-12T00:33:48.433Z,16.88
2024-03-12T00:36:15.479Z,15.30
2024-03-12T00:38:42.819Z,18.02
2024-03-12T00:41:09.887Z,18.52
2024-03-12T00:43:37.192Z,22.08
2024-03-12T00:46:06.131Z,24.58
2024-03-12T00:48:33.066Z,18.17
2024-03-12T00:50:59.930Z,21.27
2024-03-12T00:53:26.738Z,21.55
2024-03-12T00:55:54.454Z,15.68
2024-03-12T00:58:22.112Z,16.75
2024-03-12T01:00:50.561Z,15.68
2024-03-12T01:03:18.575Z,21.08
2024-03-12T01:05:45.583Z,26.50
2024-03-12T01:08:13.368Z,21.75
2024-03-12T01:10:40.718Z,16.05
2024-03-12T01:13:08.285Z,19.83
2024-03-12T01:15:36.295Z,22.65
2024-03-12T01:18:04.695Z,17.50
2024-03-12T01:20:35.561Z,22.20
2024-03-12T01:23:02.759Z,19.17
2024-03-12T01:25:32.498Z,30.33
2024-03-12T01:28:00.334Z,20.63
2024-03-12T01:30:31.813Z,20.38
2024-03-12T01:32:59.634Z,21.17
2024-03-12T01:35:26.691Z,19.45
2024-03-12T01:37:54.542Z,16.83
2024-03-12T01:40:24.062Z,17.17
2024-03-12T01:42:52.834Z,17.77
2024-03-12T01:45:23.494Z,18.25
2024-03-12T01:47:51.884Z,23.42
2024-03-12T01:50:19.552Z,22.75
2024-03-12T01:52:47.533Z,21.17
2024-03-12T01:55:19.673Z,19.70
2024-03-12T01:57:47.331Z,19.70
2024-03-12T02:00:15.665Z,17.75
2024-03-12T02:02:44.115Z,14.63
2024-03-12T02:05:11.754Z,24.02
2024-03-12T02:07:46.877Z,22.92
2024-03-12T02:10:15.300Z,18.67
2024-03-12T02:12:42.809Z,28.63
2024-03-12T02:15:09.794Z,19.08
2024-03-12T02:17:36.519Z,15.70
2024-03-12T02:20:08.605Z,18.30
2024-03-12T02:22:37.206Z,23.00
2024-03-12T02:25:08.279Z,21.83
2024-03-12T02:27:34.990Z,23.80
2024-03-12T02:30:01.877Z,17.42
2024-03-12T02:32:29.061Z,18.05
2024-03-12T02:34:55.751Z,22.02
2024-03-12T02:37:22.491Z,17.58
2024-03-12T02:39:49.674Z,16.92
2024-03-12T02:42:16.653Z,21.98
2024-03-12T02:44:43.409Z,17.35
2024-03-12T02:47:10.706Z,18.00
2024-03-12T02:49:38.078Z,19.25
2024-03-12T02:52:05.454Z,16.48
2024-03-12T02:54:32.195Z,12.57
2024-03-12T02:56:59.401Z,15.88
2024-03-12T02:59:28.398Z,20.58
2024-03-12T03:01:58.658Z,22.08
2024-03-12T03:04:25.547Z,15.57
2024-03-12T03:06:59.009Z,19.40
2024-03-12T03:09:27.536Z,23.10
2024-03-12T03:11:54.497Z,35.15
2024-03-12T03:14:21.802Z,17.90
2024-03-12T03:16:49.418Z,21.35
2024-03-12T03:19:16.402Z,18.75
2024-03-12T03:21:43.110Z,21.42
2024-03-12T03:24:09.748Z,22.15
2024-03-12T03:26:36.338Z,19.65
2024-03-12T03:29:05.222Z,23.25
2024-03-12T03:31:31.923Z,16.58
2024-03-12T03:33:59.837Z,19.73
2024-03-12T03:36:27.656Z,26.17
2024-03-12T03:38:54.422Z,21.05
2024-03-12T03:41:21.086Z,21.35
2024-03-12T03:43:47.697Z,21.50
2024-03-12T03:46:14.558Z,20.80
2024-03-12T03:48:41.409Z,22.45
2024-03-12T03:51:08.307Z,17.65
2024-03-12T03:53:34.943Z,28.17
2024-03-12T03:56:01.538Z,20.85
2024-03-12T03:58:28.172Z,27.33
2024-03-12T04:00:54.923Z,22.73
2024-03-12T04:03:22.068Z,23.35
2024-03-12T04:05:48.668Z,23.63
2024-03-12T04:08:19.328Z,21.45
2024-03-12T04:10:47.878Z,22.45
2024-03-12T04:13:15.855Z,20.48
2024-03-12T04:15:42.562Z,19.02
2024-03-12T04:18:12.481Z,26.38
2024-03-12T04:20:39.350Z,20.85
2024-03-12T04:23:05.990Z,25.77
2024-03-12T04:25:32.875Z,23.52
2024-03-12T04:27:59.533Z,18.63
2024-03-12T04:30:26.342Z,25.85
2024-03-12T04:32:52.952Z,23.55
2024-03-12T04:35:19.568Z,20.38
2024-03-12T04:37:46.180Z,22.85
2024-03-12T04:40:13.340Z,15.40
2024-03-12T04:42:40.363Z,15.00
2024-03-12T04:45:08.757Z,20.85
2024-03-12T04:47:38.486Z,18.52
2024-03-12T04:50:05.623Z,21.23
2024-03-12T04:52:34.949Z,25.67
2024-03-12T04:55:01.987Z,18.05
2024-03-12T04:57:29.192Z,17.63
2024-03-12T04:59:55.936Z,28.60
2024-03-12T05:02:22.669Z,16.05
2024-03-12T05:04:49.576Z,20.48
2024-03-12T05:07:16.806Z,21.92
2024-03-12T05:09:44.065Z,22.92
2024-03-12T05:12:10.721Z,16.77
2024-03-12T05:14:37.988Z,22.17
2024-03-12T05:17:04.871Z,17.42
2024-03-12T05:19:31.534Z,16.25
2024-03-12T05:21:58.252Z,16.88
2024-03-12T05:24:25.493Z,28.00
2024-03-12T05:26:53.461Z,20.48
2024-03-12T05:29:20.482Z,27.42
2024-03-12T05:31:47.136Z,22.92
2024-03-12T05:34:28.892Z,37.25
2024-03-12T05:37:05.071Z,23.38
2024-03-12T05:40:01.962Z,21.40
2024-03-12T05:42:47.230Z,22.05
2024-03-12T05:45:32.624Z,26.40
2024-03-12T05:48:09.047Z,21.73
2024-03-12T05:50:35.781Z,23.23
2024-03-12T05:53:02.455Z,20.67
2024-03-12T05:55:29.297Z,21.83
2024-03-12T05:57:55.918Z,23.42
2024-03-12T06:00:22.715Z,21.23
2024-03-12T06:02:50.915Z,16.70
2024-03-12T06:05:18.186Z,20.35
2024-03-12T06:07:49.670Z,17.33
2024-03-12T06:10:17.712Z,21.35
2024-03-12T06:12:44.577Z,18.75
2024-03-12T06:15:11.359Z,18.75
2024-03-12T06:17:38.163Z,20.63
2024-03-12T06:20:11.353Z,20.05
2024-03-12T06:22:38.297Z,23.20
2024-03-12T06:25:05.439Z,22.95
2024-03-12T06:27:33.522Z,18.52
2024-03-12T06:30:00.812Z,14.32
2024-03-12T06:32:32.640Z,15.90
2024-03-12T06:34:59.831Z,18.73
2024-03-12T06:37:29.445Z,16.38
2024-03-12T06:39:56.748Z,19.73
2024-03-12T06:42:27.632Z,15.20
2024-03-12T06:44:54.515Z,20.85
2024-03-12T06:47:22.164Z,19.23
2024-03-12T06:49:49.990Z,15.65
2024-03-12T06:52:16.934Z,16.30
2024-03-12T06:54:48.920Z,20.35
2024-03-12T06:57:19.048Z,34.20
2024-03-12T06:59:48.756Z,22.88
2024-03-12T07:02:18.212Z,23.10
2024-03-12T07:04:46.735Z,17.65
2024-03-12T07:07:19.445Z,36.15
2024-03-12T07:09:47.141Z,29.05
2024-03-12T07:12:17.890Z,21.50
2024-03-12T07:14:46.924Z,17.77
2024-03-12T07:17:15.670Z,20.48
2024-03-12T07:19:44.127Z,28.42
2024-03-12T07:22:12.894Z,18.60
2024-03-12T07:24:40.915Z,18.52
2024-03-12T07:27:08.695Z,18.90
2024-03-12T07:29:35.400Z,18.35
2024-03-12T07:32:04.621Z,24.08
2024-03-12T07:34:32.187Z,19.70
2024-03-12T07:37:00.719Z,20.27
2024-03-12T07:39:38.199Z,17.45
2024-03-12T07:42:14.629Z,15.02
2024-03-12T07:44:42.282Z,22.48
2024-03-12T07:47:11.037Z,22.42
2024-03-12T07:49:38.353Z,23.90
2024-03-12T07:52:07.024Z,22.17
2024-03-12T07:54:34.740Z,21.73
2024-03-12T07:57:01.801Z,25.83
2024-03-12T07:59:31.669Z,25.73
2024-03-12T08:01:59.064Z,22.55
2024-03-12T08:04:26.635Z,31.88
2024-03-12T08:06:54.144Z,20.48
2024-03-12T08:09:20.931Z,22.20
2024-03-12T08:11:48.476Z,23.30
2024-03-12T08:14:15.527Z,20.15
2024-03-12T08:16:42.859Z,22.92
2024-03-12T08:19:12.888Z,21.73
2024-03-12T08:21:40.459Z,24.35
2024-03-12T08:24:07.465Z,30.05
2024-03-12T08:26:34.098Z,32.90
2024-03-12T08:29:00.715Z,29.00
2024-03-12T08:31:35.681Z,26.30
2024-03-12T08:34:10.638Z,27.08
2024-03-12T08:36:37.602Z,22.27
2024-03-12T08:39:06.005Z,26.85
2024-03-12T08:41:34.453Z,20.65
2024-03-12T08:44:02.138Z,20.13
2024-03-12T08:46:29.897Z,24.20
2024-03-12T08:48:56.885Z,32.63
2024-03-12T08:51:25.174Z,20.30
2024-03-12T08:53:52.435Z,33.33
2024-03-12T08:56:20.797Z,25.42
2024-03-12T08:58:50.468Z,25.50
2024-03-12T09:01:19.510Z,31.88
2024-03-12T09:03:47.736Z,23.17
2024-03-12T09:06:14.679Z,22.55
2024-03-12T09:08:41.310Z,28.02
2024-03-12T09:11:10.686Z,26.27
2024-03-12T09:13:37.356Z,22.70
2024-03-12T09:16:04.334Z,25.88
2024-03-12T09:18:30.972Z,25.42
2024-03-12T09:20:57.981Z,22.23
2024-03-12T09:23:24.857Z,24.05
2024-03-12T09:25:51.525Z,20.45
2024-03-12T09:28:18.991Z,23.75
2024-03-12T09:30:46.857Z,33.55
2024-03-12T09:33:16.658Z,23.75
2024-03-12T09:35:43.358Z,26.48
2024-03-12T09:38:10.965Z,26.65
2024-03-12T09:40:38.080Z,23.75
2024-03-12T09:43:05.753Z,29.70
2024-03-12T09:45:33.106Z,25.92
2024-03-12T09:48:00.172Z,23.23
2024-03-12T09:50:30.552Z,24.40
2024-03-12T09:52:58.597Z,23.48
2024-03-12T09:55:26.526Z,28.63
2024-03-12T09:57:54.206Z,16.50
2024-03-12T10:00:24.016Z,27.70
2024-03-12T10:02:53.241Z,29.27
2024-03-12T10:05:24.269Z,21.65
2024-03-12T10:08:16.341Z,22.02
2024-03-12T10:10:48.301Z,24.02
2024-03-12T10:13:16.698Z,26.25
2024-03-12T10:16:11.540Z,23.83
2024-03-12T10:18:40.233Z,29.52
2024-03-12T10:21:08.342Z,24.30
2024-03-12T10:23:37.873Z,24.13
2024-03-12T10:26:11.115Z,21.13
2024-03-12T10:28:41.212Z,34.23
2024-03-12T10:31:11.029Z,24.75
2024-03-12T10:33:42.113Z,30.38
2024-03-12T10:36:12.892Z,26.00
2024-03-12T10:38:44.171Z,26.35
2024-03-12T10:41:22.780Z,27.75
2024-03-12T10:43:56.402Z,39.00
2024-03-12T10:46:25.124Z,32.53
2024-03-12T10:48:52.387Z,20.90
2024-03-12T10:51:20.630Z,30.73
2024-03-12T10:53:54.564Z,24.17
2024-03-12T10:56:23.044Z,32.65
2024-03-12T10:58:50.398Z,21.13
2024-03-12T11:01:22.066Z,25.92
2024-03-12T11:03:51.322Z,30.33
2024-03-12T11:06:20.505Z,27.33
2024-03-12T11:08:48.729Z,29.67
2024-03-12T11:11:17.622Z,26.55
2024-03-12T11:13:44.606Z,24.38
2024-03-12T11:16:19.125Z,22.05
2024-03-12T11:18:49.441Z,27.13
2024-03-12T11:21:24.609Z,27.92
2024-03-12T11:23:55.538Z,25.23
2024-03-12T11:29:00.938Z,21.55
2024-03-12T11:31:40.212Z,24.25
2024-03-12T11:34:08.692Z,24.27
2024-03-12T11:36:41.604Z,27.30
2024-03-12T11:39:13.458Z,27.05
2024-03-12T11:42:00.940Z,27.83
2024-03-12T11:44:56.280Z,23.35
2024-03-12T11:47:30.501Z,25.50
2024-03-12T11:50:00.118Z,30.30
2024-03-12T11:52:28.872Z,23.17
2024-03-12T11:54:55.652Z,22.23
2024-03-12T11:57:25.528Z,27.75
2024-03-12T11:59:52.467Z,28.65
2024-03-12T12:02:22.272Z,25.60
2024-03-12T12:04:55.368Z,25.55
2024-03-12T12:07:24.092Z,25.75
2024-03-12T12:09:53.197Z,33.45
2024-03-12T12:12:21.291Z,25.20
2024-03-12T12:14:50.170Z,31.00
2024-03-12T12:17:25.580Z,28.45
2024-03-12T12:20:20.014Z,26.50
2024-03-12T12:22:48.235Z,28.17
2024-03-12T12:25:22.070Z,29.33
2024-03-12T12:27:51.982Z,22.45
2024-03-12T12:30:22.777Z,25.83
2024-03-12T12:32:53.379Z,28.02
2024-03-12T12:35:25.157Z,30.33
2024-03-12T12:37:54.010Z,22.00
2024-03-12T12:40:23.331Z,31.65
2024-03-12T12:42:55.248Z,27.70
2024-03-12T12:45:26.810Z,31.50
2024-03-12T12:47:56.435Z,24.17
2024-03-12T12:50:32.312Z,24.50
2024-03-12T12:53:06.645Z,24.17
2024-03-12T12:55:34.409Z,22.27
2024-03-12T12:58:03.899Z,27.80
2024-03-12T13:00:37.995Z,24.90
2024-03-12T13:03:13.451Z,23.52
2024-03-12T13:05:43.818Z,21.30
2024-03-12T13:08:22.597Z,25.60
2024-03-12T13:11:06.559Z,23.20
2024-03-12T13:13:37.344Z,26.30
2024-03-12T13:16:15.481Z,26.73
2024-03-12T13:18:45.457Z,23.17
2024-03-12T13:21:18.683Z,30.08
2024-03-12T13:23:47.708Z,25.25
2024-03-12T13:26:17.369Z,21.48
2024-03-12T13:28:47.799Z,29.42
2024-03-12T13:31:19.802Z,28.38
2024-03-12T13:33:48.088Z,23.15
2024-03-12T13:36:15.384Z,25.33
2024-03-12T13:38:42.092Z,29.42
2024-03-12T13:41:10.482Z,28.30
2024-03-12T13:43:38.695Z,30.63
2024-03-12T13:46:08.795Z,25.15
2024-03-12T13:48:41.187Z,28.70
2024-03-12T13:51:09.249Z,27.33
2024-03-12T13:53:36.147Z,28.63
2024-03-12T13:56:04.127Z,27.10
2024-03-12T13:58:30.802Z,28.02
2024-03-12T14:00:58.975Z,26.65
2024-03-12T14:03:31.899Z,35.25
2024-03-12T14:06:00.557Z,26.20
2024-03-12T14:08:27.300Z,29.55
2024-03-12T14:10:54.029Z,35.88
2024-03-12T14:13:22.924Z,24.10
2024-03-12T14:15:49.875Z,24.38
2024-03-12T14:18:22.862Z,22.63
2024-03-12T14:20:52.706Z,26.70
2024-03-12T14:23:20.111Z,30.80
2024-03-12T14:25:46.928Z,29.30
2024-03-12T14:28:13.874Z,22.00
2024-03-12T14:30:40.747Z,29.48
2024-03-12T14:33:07.675Z,24.27
2024-03-12T14:35:34.381Z,24.77
2024-03-12T14:38:01.070Z,26.70
2024-03-12T14:40:27.947Z,26.88
2024-03-12T14:42:56.100Z,27.88
2024-03-12T14:45:25.025Z,27.75
2024-03-12T14:47:52.213Z,28.27
2024-03-12T14:50:19.196Z,29.77
2024-03-12T14:52:48.433Z,20.38
2024-03-12T14:55:15.107Z,25.20
2024-03-12T14:57:42.156Z,27.63
2024-03-12T15:00:11.585Z,24.23
2024-03-12T15:02:38.963Z,28.55
2024-03-12T15:05:15.914Z,30.52
2024-03-12T15:07:44.641Z,26.30
2024-03-12T15:10:12.071Z,22.73
2024-03-12T15:12:41.004Z,24.60
2024-03-12T15:15:13.061Z,21.05
2024-03-12T15:17:40.806Z,32.28
2024-03-12T15:20:20.193Z,24.30
2024-03-12T15:22:47.139Z,25.90
2024-03-12T15:25:16.294Z,27.92
2024-03-12T15:27:43.561Z,22.77
2024-03-12T15:30:11.025Z,24.38
2024-03-12T15:32:39.452Z,31.35
2024-03-12T15:35:12.767Z,30.98
2024-03-12T15:37:39.550Z,26.08
2024-03-12T15:40:08.996Z,20.50
2024-03-12T15:42:37.548Z,26.15
2024-03-12T15:45:06.381Z,24.55
2024-03-12T15:47:35.359Z,24.27
2024-03-12T15:50:02.548Z,30.88
2024-03-12T15:52:29.328Z,32.40
2024-03-12T15:54:56.275Z,25.17
2024-03-12T15:57:24.275Z,24.15
2024-03-12T15:59:51.190Z,20.58
2024-03-12T16:02:19.363Z,23.85
2024-03-12T16:04:46.322Z,21.20
2024-03-12T16:07:13.375Z,31.63
2024-03-12T16:09:40.419Z,27.50
2024-03-12T16:12:07.371Z,29.55
2024-03-12T16:14:34.066Z,32.10
2024-03-12T16:17:00.850Z,32.13
2024-03-12T16:19:31.078Z,36.13
2024-03-12T16:22:01.368Z,33.40
2024-03-12T16:24:31.261Z,42.45
2024-03-12T16:26:59.150Z,35.80
2024-03-12T16:29:27.257Z,35.38
2024-03-12T16:31:53.865Z,46.22
2024-03-12T16:34:20.703Z,35.05
2024-03-12T16:36:47.495Z,36.00
2024-03-12T16:39:14.562Z,50.85
2024-03-12T16:41:42.153Z,35.22
2024-03-12T16:44:08.835Z,33.10
2024-03-12T16:46:35.717Z,41.28
2024-03-12T16:49:04.920Z,33.25
2024-03-12T16:51:35.288Z,28.63
2024-03-12T16:54:03.571Z,35.00
2024-03-12T16:56:33.705Z,37.72
2024-03-12T16:59:01.514Z,32.67
2024-03-12T17:01:29.013Z,43.47
2024-03-12T17:03:57.365Z,32.33
2024-03-12T17:06:24.162Z,30.30
2024-03-12T17:08:51.329Z,31.85
2024-03-12T17:11:18.276Z,29.48
2024-03-12T17:13:45.676Z,26.42
2024-03-12T17:16:14.026Z,25.92
2024-03-12T17:18:41.919Z,30.25
2024-03-12T17:21:10.954Z,22.38
2024-03-12T17:23:37.879Z,20.88
2024-03-12T17:26:05.505Z,21.10
2024-03-12T17:28:34.364Z,26.88
2024-03-12T17:31:01.725Z,28.40
2024-03-12T17:33:28.771Z,33.17
2024-03-12T17:35:56.324Z,28.45
2024-03-12T17:38:26.089Z,27.58
2024-03-12T17:40:59.355Z,24.50
2024-03-12T17:43:30.439Z,26.85
2024-03-12T17:45:57.728Z,24.77
2024-03-12T17:48:46.100Z,30.48
2024-03-12T17:51:22.769Z,27.83
2024-03-12T17:53:49.734Z,30.15
2024-03-12T17:56:18.254Z,31.63
2024-03-12T17:58:52.638Z,26.13
2024-03-12T18:01:22.142Z,31.83
2024-03-12T18:03:49.664Z,34.15
2024-03-12T18:06:17.851Z,25.35
2024-03-12T18:08:51.084Z,28.77
2024-03-12T18:13:50.308Z,29.58
2024-03-12T18:16:17.588Z,26.05
2024-03-12T18:18:44.574Z,26.23
2024-03-12T18:21:14.266Z,39.90
2024-03-12T18:23:42.373Z,33.63
2024-03-12T18:26:09.179Z,29.77
2024-03-12T18:28:36.900Z,32.17
2024-03-12T18:31:03.745Z,31.42
2024-03-12T18:33:30.944Z,27.02
2024-03-12T18:35:57.729Z,36.13
2024-03-12T18:38:25.908Z,25.20
2024-03-12T18:40:52.583Z,29.75
2024-03-12T18:43:19.321Z,33.70
2024-03-12T18:45:46.020Z,40.03
2024-03-12T18:48:13.411Z,36.28
2024-03-12T18:50:40.321Z,33.70
2024-03-12T18:53:07.519Z,38.28
2024-03-12T18:55:34.408Z,30.25
2024-03-12T18:58:01.324Z,33.13
2024-03-12T19:00:30.076Z,33.05
2024-03-12T19:03:05.256Z,37.50
2024-03-12T19:05:35.324Z,37.95
2024-03-12T19:08:03.608Z,36.70
2024-03-12T19:10:31.206Z,43.55
2024-03-12T19:12:59.001Z,27.95
2024-03-12T19:15:36.299Z,40.92
2024-03-12T19:18:12.747Z,35.88
2024-03-12T19:20:39.785Z,41.40
2024-03-12T19:23:07.011Z,32.08
2024-03-12T19:25:33.613Z,39.90
2024-03-12T19:28:00.412Z,29.45
2024-03-12T19:30:27.332Z,36.10
2024-03-12T19:32:54.543Z,29.63
2024-03-12T19:35:22.564Z,36.33
2024-03-12T19:37:50.092Z,47.33
2024-03-12T19:40:24.855Z,39.22
2024-03-12T19:42:53.721Z,54.00
2024-03-12T19:45:24.310Z,52.03
2024-03-12T19:47:52.837Z,56.80
2024-03-12T19:50:25.637Z,43.40
2024-03-12T19:52:54.097Z,70.13
2024-03-12T19:55:30.664Z,51.17
2024-03-12T19:58:00.898Z,49.97
2024-03-12T20:00:35.860Z,56.60
2024-03-12T20:03:13.632Z,48.03
2024-03-12T20:05:41.892Z,36.17
2024-03-12T20:08:10.605Z,50.53
2024-03-12T20:10:38.234Z,47.22
2024-03-12T20:13:06.486Z,50.92
2024-03-12T20:15:34.050Z,37.85
2024-03-12T20:18:02.285Z,48.60
2024-03-12T20:20:29.794Z,54.25
2024-03-12T20:22:56.901Z,51.25
2024-03-12T20:25:24.100Z,37.08
2024-03-12T20:27:55.459Z,39.40
2024-03-12T20:30:28.349Z,46.25
2024-03-12T20:35:25.492Z,37.35
2024-03-12T20:37:56.542Z,48.00
2024-03-12T20:40:26.338Z,48.50
2024-03-12T20:42:54.033Z,52.30
2024-03-12T20:45:23.954Z,60.83
2024-03-12T20:47:51.073Z,39.70
2024-03-12T20:50:20.408Z,40.45
2024-03-12T20:52:48.173Z,41.30
2024-03-12T20:55:15.455Z,35.60
2024-03-12T20:57:45.316Z,70.38
2024-03-12T21:00:24.646Z,45.58
2024-03-12T21:02:53.174Z,67.50
2024-03-12T21:05:21.839Z,44.08
2024-03-12T21:07:49.199Z,49.55
2024-03-12T21:10:15.860Z,48.78
2024-03-12T21:12:49.743Z,59.28
2024-03-12T21:15:17.637Z,67.18
2024-03-12T21:17:45.232Z,45.70
2024-03-12T21:20:17.344Z,46.40
2024-03-12T21:22:44.031Z,62.03
2024-03-12T21:25:11.622Z,36.33
2024-03-12T21:27:38.615Z,59.33
2024-03-12T21:30:10.319Z,49.42
2024-03-12T21:32:37.055Z,44.35
2024-03-12T21:35:06.318Z,36.95
2024-03-12T21:37:33.244Z,53.83
2024-03-12T21:40:00.817Z,47.50
2024-03-12T21:42:27.558Z,41.97
2024-03-12T21:44:54.201Z,35.88
2024-03-12T21:47:21.712Z,32.25
2024-03-12T21:49:48.439Z,40.22
2024-03-12T21:52:17.114Z,46.22
2024-03-12T21:54:47.718Z,56.65
2024-03-12T21:57:14.518Z,48.33
2024-03-12T21:59:41.350Z,44.30
2024-03-12T22:02:08.316Z,51.22
2024-03-12T22:04:34.998Z,37.92
2024-03-12T22:07:03.449Z,42.83
2024-03-12T22:09:30.490Z,42.70
2024-03-12T22:11:57.155Z,45.95
2024-03-12T22:14:25.312Z,44.33
2024-03-12T22:16:52.422Z,37.60
2024-03-12T22:19:19.613Z,37.80
2024-03-12T22:21:49.116Z,49.72
2024-03-12T22:24:23.755Z,39.65
2024-03-12T22:26:54.542Z,36.42
2024-03-12T22:29:21.428Z,35.08
2024-03-12T22:31:49.716Z,43.00
2024-03-12T22:34:16.903Z,35.80
2024-03-12T22:36:45.312Z,36.00
2024-03-12T22:39:14.328Z,33.80
2024-03-12T22:41:49.022Z,37.30
2024-03-12T22:44:16.510Z,36.75
2024-03-12T22:46:45.570Z,34.80
2024-03-12T22:49:12.649Z,40.47
2024-03-12T22:51:41.433Z,29.08
2024-03-12T22:54:11.414Z,40.38
2024-03-12T22:56:39.098Z,33.97
2024-03-12T22:59:07.693Z,33.65
2024-03-12T23:01:41.210Z,31.38
2024-03-12T23:04:09.633Z,38.55
2024-03-12T23:06:39.876Z,39.80
2024-03-12T23:09:09.170Z,34.95
2024-03-12T23:11:36.312Z,29.55
2024-03-12T23:14:05.776Z,30.90
2024-03-12T23:16:32.587Z,36.67
2024-03-12T23:18:59.192Z,33.58
2024-03-12T23:21:27.532Z,38.80
2024-03-12T23:23:54.403Z,31.33
2024-03-12T23:26:21.056Z,34.72
2024-03-12T23:28:47.730Z,34.38
2024-03-12T23:31:14.463Z,34.72
2024-03-12T23:33:41.193Z,31.63
2024-03-12T23:36:08.608Z,33.75
2024-03-12T23:38:36.639Z,29.40
2024-03-12T23:41:03.482Z,31.55
2024-03-12T23:43:31.074Z,35.55
2024-03-12T23:45:57.794Z,20.67
2024-03-12T23:48:25.552Z,22.38
2024-03-12T23:50:52.489Z,26.42
2024-03-12T23:53:19.114Z,24.80
2024-03-12T23:55:45.927Z,22.83
2024-03-12T23:58:13.212Z,17.92
